createdAt,value
2023-11-30T00:01:06.358Z,7.12
2023-11-30T00:03:36.066Z,7.15
2023-11-30T00:06:03.816Z,8.70
2023-11-30T00:08:31.357Z,11.00
2023-11-30T00:10:59.360Z,9.13
2023-11-30T00:13:27.553Z,10.45
2023-11-30T00:15:55.213Z,10.30
2023-11-30T00:18:22.566Z,10.95
2023-11-30T00:20:50.151Z,11.10
2023-11-30T00:23:17.632Z,10.88
2023-11-30T00:25:45.307Z,9.28
2023-11-30T00:28:12.946Z,10.15
2023-11-30T00:30:41.416Z,8.65
2023-11-30T00:33:09.146Z,8.43
2023-11-30T00:35:36.808Z,8.23
2023-11-30T00:38:04.416Z,8.18
2023-11-30T00:40:32.648Z,7.90
2023-11-30T00:43:00.930Z,7.50
2023-11-30T00:45:28.699Z,7.28
2023-11-30T00:47:56.583Z,7.65
2023-11-30T00:50:24.035Z,8.03
2023-11-30T00:52:51.448Z,7.12
2023-11-30T00:55:19.103Z,6.90
2023-11-30T00:57:47.061Z,6.62
2023-11-30T01:00:15.429Z,6.47
2023-11-30T01:02:43.036Z,7.72
2023-11-30T01:05:10.618Z,7.35
2023-11-30T01:07:38.396Z,7.83
2023-11-30T01:10:07.946Z,6.85
2023-11-30T01:12:35.708Z,8.40
2023-11-30T01:15:04.745Z,9.18
2023-11-30T01:17:32.301Z,9.93
2023-11-30T01:19:59.852Z,14.75
2023-11-30T01:22:27.526Z,11.10
2023-11-30T01:24:55.044Z,7.92
2023-11-30T01:27:24.000Z,7.45
2023-11-30T01:29:51.669Z,9.80
2023-11-30T01:32:19.394Z,11.43
2023-11-30T01:34:48.599Z,10.45
2023-11-30T01:37:21.476Z,9.98
2023-11-30T01:39:54.405Z,10.32
2023-11-30T01:42:31.902Z,9.65
2023-11-30T01:45:06.981Z,10.10
2023-11-30T01:47:46.100Z,9.00
2023-11-30T01:50:24.024Z,6.78
2023-11-30T01:52:55.653Z,7.05
2023-11-30T01:55:28.130Z,7.72
2023-11-30T01:58:05.137Z,8.43
2023-11-30T02:00:40.917Z,8.63
2023-11-30T02:03:09.673Z,8.33
2023-11-30T02:05:38.456Z,8.70
2023-11-30T02:08:06.250Z,8.73
2023-11-30T02:10:33.769Z,9.25
2023-11-30T02:13:01.393Z,8.83
2023-11-30T02:15:29.542Z,8.58
2023-11-30T02:17:57.069Z,8.18
2023-11-30T02:20:24.604Z,7.33
2023-11-30T02:22:52.304Z,8.80
2023-11-30T02:25:19.755Z,8.70
2023-11-30T02:27:47.569Z,9.03
2023-11-30T02:30:16.401Z,8.05
2023-11-30T02:32:43.936Z,8.33
2023-11-30T02:35:11.465Z,8.60
2023-11-30T02:37:38.638Z,9.50
2023-11-30T02:40:08.014Z,10.03
2023-11-30T02:42:36.089Z,8.75
2023-11-30T02:45:04.408Z,9.18
2023-11-30T02:47:31.799Z,9.05
2023-11-30T02:49:59.263Z,9.28
2023-11-30T02:52:26.881Z,8.78
2023-11-30T02:54:54.162Z,8.00
2023-11-30T02:57:21.773Z,7.78
2023-11-30T02:59:49.383Z,7.90
2023-11-30T03:02:16.736Z,7.72
2023-11-30T03:04:45.720Z,7.90
2023-11-30T03:07:13.192Z,7.78
2023-11-30T03:09:40.852Z,6.67
2023-11-30T03:12:08.618Z,7.40
2023-11-30T03:14:36.306Z,7.72
2023-11-30T03:17:04.049Z,7.85
2023-11-30T03:19:31.587Z,11.12
2023-11-30T03:21:59.287Z,8.20
2023-11-30T03:24:27.915Z,7.62
2023-11-30T03:26:55.374Z,6.65
2023-11-30T03:29:23.047Z,6.72
2023-11-30T03:31:51.235Z,6.78
2023-11-30T03:34:18.575Z,5.90
2023-11-30T03:36:46.223Z,6.35
2023-11-30T03:39:14.014Z,6.25
2023-11-30T03:41:41.302Z,6.30
2023-11-30T03:44:08.897Z,6.40
2023-11-30T03:46:37.040Z,15.80
2023-11-30T03:49:04.573Z,7.78
2023-11-30T03:51:33.496Z,7.33
2023-11-30T03:54:01.419Z,6.60
2023-11-30T03:56:33.756Z,7.08
2023-11-30T03:59:01.093Z,6.20
2023-11-30T04:01:28.862Z,6.30
2023-11-30T04:03:56.261Z,6.53
2023-11-30T04:06:24.467Z,6.25
2023-11-30T04:08:53.413Z,7.12
2023-11-30T04:11:21.300Z,8.38
2023-11-30T04:13:49.409Z,8.53
2023-11-30T04:16:18.331Z,28.42
2023-11-30T04:18:46.028Z,12.20
2023-11-30T04:21:14.614Z,12.98
2023-11-30T04:23:42.416Z,15.93
2023-11-30T04:26:10.607Z,15.95
2023-11-30T04:28:38.334Z,16.40
2023-11-30T04:31:06.456Z,17.75
2023-11-30T04:33:34.835Z,20.52
2023-11-30T04:36:03.444Z,30.25
2023-11-30T04:38:31.280Z,28.00
2023-11-30T04:40:59.955Z,29.27
2023-11-30T04:43:27.405Z,30.52
2023-11-30T04:45:54.862Z,25.97
2023-11-30T04:48:22.279Z,34.65
2023-11-30T04:50:50.023Z,62.55
2023-11-30T04:53:17.936Z,49.80
2023-11-30T04:55:46.500Z,59.53
2023-11-30T04:58:14.716Z,61.35
2023-11-30T05:00:42.613Z,50.38
2023-11-30T05:03:10.106Z,42.48
2023-11-30T05:05:37.922Z,19.48
2023-11-30T05:08:05.357Z,13.18
2023-11-30T05:10:32.804Z,12.03
2023-11-30T05:13:00.199Z,13.68
2023-11-30T05:15:27.882Z,14.43
2023-11-30T05:17:55.187Z,15.65
2023-11-30T05:20:22.682Z,30.95
2023-11-30T05:22:51.029Z,16.87
2023-11-30T05:25:18.847Z,17.73
2023-11-30T05:27:46.321Z,16.20
2023-11-30T05:30:14.360Z,16.90
2023-11-30T05:32:42.168Z,16.50
2023-11-30T05:35:09.775Z,17.45
2023-11-30T05:37:37.391Z,18.82
2023-11-30T05:40:08.238Z,22.85
2023-11-30T05:42:36.154Z,23.87
2023-11-30T05:45:05.783Z,23.02
2023-11-30T05:47:33.236Z,23.32
2023-11-30T05:50:00.835Z,17.92
2023-11-30T05:52:28.292Z,15.78
2023-11-30T05:54:57.711Z,14.13
2023-11-30T05:57:24.917Z,20.40
2023-11-30T05:59:52.932Z,17.67
2023-11-30T06:02:22.333Z,15.45
2023-11-30T06:04:52.136Z,9.63
2023-11-30T06:07:20.878Z,9.10
2023-11-30T06:09:48.442Z,9.40
2023-11-30T06:12:16.240Z,11.03
2023-11-30T06:14:44.285Z,10.10
2023-11-30T06:17:12.835Z,10.65
2023-11-30T06:19:41.294Z,10.40
2023-11-30T06:22:09.149Z,11.43
2023-11-30T06:24:36.952Z,12.58
2023-11-30T06:27:07.694Z,30.15
2023-11-30T06:29:35.205Z,13.20
2023-11-30T06:32:03.688Z,13.08
2023-11-30T06:34:33.076Z,13.83
2023-11-30T06:37:00.792Z,22.17
2023-11-30T06:39:29.423Z,11.90
2023-11-30T06:41:57.121Z,16.15
2023-11-30T06:44:24.687Z,16.65
2023-11-30T06:46:52.067Z,29.72
2023-11-30T06:49:19.356Z,27.25
2023-11-30T06:51:46.711Z,43.98
2023-11-30T06:54:14.361Z,60.92
2023-11-30T06:56:42.150Z,35.35
2023-11-30T06:59:09.711Z,20.30
2023-11-30T07:01:37.501Z,11.93
2023-11-30T07:04:06.210Z,10.78
2023-11-30T07:06:33.749Z,10.80
2023-11-30T07:09:01.217Z,11.88
2023-11-30T07:11:28.797Z,12.43
2023-11-30T07:13:56.248Z,13.15
2023-11-30T07:16:25.714Z,15.60
2023-11-30T07:18:53.355Z,20.12
2023-11-30T07:21:20.875Z,14.58
2023-11-30T07:23:48.255Z,15.13
2023-11-30T07:26:16.190Z,14.03
2023-11-30T07:28:43.506Z,14.73
2023-11-30T07:31:18.941Z,13.28
2023-11-30T07:33:47.923Z,12.00
2023-11-30T07:36:15.871Z,13.65
2023-11-30T07:38:43.367Z,13.98
2023-11-30T07:41:12.163Z,14.45
2023-11-30T07:43:39.627Z,17.52
2023-11-30T07:46:08.290Z,15.88
2023-11-30T07:48:35.801Z,18.80
2023-11-30T07:51:03.493Z,22.93
2023-11-30T07:53:30.990Z,23.57
2023-11-30T07:55:58.609Z,21.42
2023-11-30T07:58:26.376Z,17.37
2023-11-30T08:00:53.886Z,25.77
2023-11-30T08:03:21.251Z,22.02
2023-11-30T08:05:49.596Z,12.95
2023-11-30T08:08:18.199Z,14.43
2023-11-30T08:10:45.853Z,17.80
2023-11-30T08:13:14.152Z,14.03
2023-11-30T08:15:42.010Z,16.42
2023-11-30T08:18:10.945Z,13.80
2023-11-30T08:20:38.483Z,13.38
2023-11-30T08:23:06.000Z,13.25
2023-11-30T08:25:33.735Z,16.93
2023-11-30T08:28:01.461Z,18.70
2023-11-30T08:30:30.006Z,20.95
2023-11-30T08:32:59.399Z,18.62
2023-11-30T08:35:28.114Z,12.53
2023-11-30T08:37:55.939Z,13.53
2023-11-30T08:40:23.772Z,15.50
2023-11-30T08:42:51.271Z,11.88
2023-11-30T08:45:18.799Z,16.62
2023-11-30T08:47:46.268Z,23.62
2023-11-30T08:50:15.227Z,18.30
2023-11-30T08:52:42.614Z,14.20
2023-11-30T08:55:11.887Z,12.25
2023-11-30T08:57:42.014Z,11.28
2023-11-30T09:00:14.330Z,11.15
2023-11-30T09:02:42.594Z,11.55
2023-11-30T09:05:12.745Z,10.85
2023-11-30T09:07:40.143Z,8.93
2023-11-30T09:10:08.664Z,17.82
2023-11-30T09:12:36.296Z,18.20
2023-11-30T09:15:07.445Z,9.78
2023-11-30T09:17:36.245Z,9.90
2023-11-30T09:20:06.759Z,9.43
2023-11-30T09:22:36.382Z,8.83
2023-11-30T09:25:04.739Z,8.60
2023-11-30T09:27:32.909Z,8.05
2023-11-30T09:30:01.874Z,10.60
2023-11-30T09:32:29.314Z,11.28
2023-11-30T09:34:56.964Z,8.93
2023-11-30T09:37:24.587Z,8.50
2023-11-30T09:39:52.246Z,17.70
2023-11-30T09:42:20.173Z,16.00
2023-11-30T09:44:47.818Z,11.75
2023-11-30T09:47:16.535Z,6.72
2023-11-30T09:49:44.220Z,8.78
2023-11-30T09:52:11.576Z,10.00
2023-11-30T09:54:39.550Z,9.05
2023-11-30T09:57:07.075Z,6.42
2023-11-30T09:59:34.679Z,7.17
2023-11-30T10:02:05.496Z,8.23
2023-11-30T10:04:32.289Z,7.03
2023-11-30T10:06:59.848Z,9.35
2023-11-30T10:09:27.857Z,8.20
2023-11-30T10:11:55.804Z,8.70
2023-11-30T10:14:23.352Z,10.08
2023-11-30T10:16:50.846Z,8.20
2023-11-30T10:19:18.684Z,8.68
2023-11-30T10:21:46.363Z,7.25
2023-11-30T10:24:13.943Z,9.25
2023-11-30T10:26:44.054Z,11.38
2023-11-30T10:29:15.393Z,19.52
2023-11-30T10:31:44.305Z,11.35
2023-11-30T10:34:14.701Z,8.25
2023-11-30T10:36:44.468Z,7.62
2023-11-30T10:39:21.568Z,7.22
2023-11-30T10:41:55.558Z,7.35
2023-11-30T10:44:30.241Z,7.97
2023-11-30T10:47:00.437Z,9.68
2023-11-30T10:49:29.976Z,17.73
2023-11-30T10:52:03.507Z,12.60
2023-11-30T10:54:42.259Z,7.67
2023-11-30T10:57:13.717Z,8.75
2023-11-30T10:59:46.460Z,7.47
2023-11-30T11:02:15.024Z,7.40
2023-11-30T11:04:43.748Z,8.45
2023-11-30T11:07:14.101Z,8.53
2023-11-30T11:09:45.264Z,8.13
2023-11-30T11:12:26.710Z,7.08
2023-11-30T11:15:14.167Z,7.80
2023-11-30T11:17:52.563Z,7.95
2023-11-30T11:20:27.213Z,15.58
2023-11-30T11:23:09.174Z,14.53
2023-11-30T11:25:46.750Z,9.48
2023-11-30T11:28:17.380Z,10.68
2023-11-30T11:30:51.388Z,13.30
2023-11-30T11:33:23.097Z,8.58
2023-11-30T11:35:51.286Z,7.15
2023-11-30T11:38:19.687Z,8.83
2023-11-30T11:40:49.110Z,10.30
2023-11-30T11:43:17.071Z,7.90
2023-11-30T11:45:45.228Z,7.03
2023-11-30T11:48:13.508Z,5.28
2023-11-30T11:50:41.550Z,5.90
2023-11-30T11:53:09.366Z,6.28
2023-11-30T11:55:38.863Z,7.78
2023-11-30T11:58:06.638Z,9.63
2023-11-30T12:00:34.397Z,8.50
2023-11-30T12:03:07.320Z,9.13
2023-11-30T12:05:35.190Z,8.73
2023-11-30T12:08:03.756Z,12.00
2023-11-30T12:10:43.840Z,10.88
2023-11-30T12:13:14.654Z,10.60
2023-11-30T12:15:43.057Z,10.40
2023-11-30T12:18:14.062Z,8.68
2023-11-30T12:20:42.664Z,12.10
2023-11-30T12:23:11.968Z,10.98
2023-11-30T12:25:39.948Z,12.60
2023-11-30T12:28:08.092Z,8.75
2023-11-30T12:30:37.004Z,6.95
2023-11-30T12:33:04.852Z,12.58
2023-11-30T12:35:32.620Z,7.12
2023-11-30T12:38:02.609Z,7.75
2023-11-30T12:40:30.645Z,6.92
2023-11-30T12:42:58.498Z,33.25
2023-11-30T12:45:27.896Z,14.65
2023-11-30T12:47:56.420Z,9.93
2023-11-30T12:50:24.234Z,7.50
2023-11-30T12:52:52.460Z,6.17
2023-11-30T12:55:20.462Z,9.15
2023-11-30T12:57:48.699Z,11.80
2023-11-30T13:00:17.784Z,11.35
2023-11-30T13:02:47.659Z,12.53
2023-11-30T13:05:16.663Z,13.18
2023-11-30T13:07:44.587Z,22.25
2023-11-30T13:10:12.674Z,16.48
2023-11-30T13:12:41.550Z,13.70
2023-11-30T13:15:12.562Z,23.52
2023-11-30T13:17:40.904Z,23.90
2023-11-30T13:20:12.488Z,15.83
2023-11-30T13:22:47.376Z,10.28
2023-11-30T13:25:15.581Z,10.23
2023-11-30T13:27:48.418Z,9.63
2023-11-30T13:30:18.131Z,9.53
2023-11-30T13:32:46.697Z,10.28
2023-11-30T13:35:14.601Z,13.10
2023-11-30T13:37:42.772Z,11.05
2023-11-30T13:40:11.903Z,9.38
2023-11-30T13:42:39.821Z,11.00
2023-11-30T13:45:08.468Z,11.45
2023-11-30T13:47:36.304Z,11.35
2023-11-30T13:50:06.131Z,11.20
2023-11-30T13:52:34.120Z,9.28
2023-11-30T13:55:01.932Z,9.08
2023-11-30T13:57:29.702Z,9.18
2023-11-30T13:59:57.962Z,9.03
2023-11-30T14:02:25.875Z,9.23
2023-11-30T14:04:54.106Z,11.60
2023-11-30T14:07:22.332Z,14.87
2023-11-30T14:09:50.098Z,13.45
2023-11-30T14:12:17.889Z,11.75
2023-11-30T14:14:46.303Z,10.35
2023-11-30T14:17:14.246Z,11.20
2023-11-30T14:19:42.175Z,10.20
2023-11-30T14:22:10.104Z,10.88
2023-11-30T14:24:40.730Z,10.30
2023-11-30T14:27:12.529Z,10.55
2023-11-30T14:29:40.357Z,13.05
2023-11-30T14:32:08.566Z,13.78
2023-11-30T14:34:37.549Z,13.62
2023-11-30T14:37:05.504Z,20.68
2023-11-30T14:39:33.517Z,17.40
2023-11-30T14:42:01.489Z,18.67
2023-11-30T14:44:29.853Z,17.15
2023-11-30T14:46:57.782Z,15.60
2023-11-30T14:49:25.583Z,15.80
2023-11-30T14:51:53.422Z,21.95
2023-11-30T14:54:21.361Z,22.93
2023-11-30T14:56:50.685Z,27.85
2023-11-30T14:59:18.645Z,25.30
2023-11-30T15:01:47.225Z,26.30
2023-11-30T15:04:16.357Z,30.30
2023-11-30T15:06:44.588Z,20.10
2023-11-30T15:09:14.387Z,21.15
2023-11-30T15:11:43.934Z,16.30
2023-11-30T15:14:14.256Z,30.17
2023-11-30T15:16:42.524Z,19.20
2023-11-30T15:19:10.694Z,24.10
2023-11-30T15:21:38.555Z,20.88
2023-11-30T15:24:07.549Z,21.60
2023-11-30T15:26:35.368Z,20.35
2023-11-30T15:29:03.176Z,23.60
2023-11-30T15:31:32.307Z,15.50
2023-11-30T15:34:01.981Z,14.65
2023-11-30T15:36:30.027Z,16.42
2023-11-30T15:38:59.676Z,18.75
2023-11-30T15:41:27.698Z,24.92
2023-11-30T15:43:55.525Z,24.07
2023-11-30T15:46:23.341Z,25.50
2023-11-30T15:48:51.181Z,21.02
2023-11-30T15:51:20.109Z,18.90
2023-11-30T15:53:47.808Z,27.05
2023-11-30T15:56:21.762Z,31.25
2023-11-30T15:58:49.693Z,25.85
2023-11-30T16:01:17.681Z,27.85
2023-11-30T16:03:45.858Z,24.20
2023-11-30T16:06:13.964Z,23.98
2023-11-30T16:08:41.839Z,24.37
2023-11-30T16:11:14.509Z,22.35
2023-11-30T16:13:42.977Z,22.60
2023-11-30T16:16:15.029Z,23.57
2023-11-30T16:18:43.128Z,21.55
2023-11-30T16:21:16.621Z,20.27
2023-11-30T16:23:47.943Z,18.35
2023-11-30T16:26:21.255Z,17.52
2023-11-30T16:28:49.502Z,18.62
2023-11-30T16:31:18.030Z,16.48
2023-11-30T16:33:45.940Z,25.45
2023-11-30T16:36:13.725Z,23.80
2023-11-30T16:38:42.290Z,27.93
2023-11-30T16:41:10.165Z,24.65
2023-11-30T16:43:38.080Z,20.85
2023-11-30T16:46:07.139Z,18.27
2023-11-30T16:48:35.847Z,18.98
2023-11-30T16:51:07.787Z,19.90
2023-11-30T16:53:35.672Z,31.50
2023-11-30T16:56:04.495Z,22.20
2023-11-30T16:58:32.300Z,19.15
2023-11-30T17:01:00.268Z,25.02
2023-11-30T17:03:29.213Z,16.85
2023-11-30T17:05:57.623Z,14.63
2023-11-30T17:08:25.481Z,15.40
2023-11-30T17:10:53.338Z,16.48
2023-11-30T17:13:23.448Z,14.80
2023-11-30T17:15:52.936Z,14.15
2023-11-30T17:18:21.089Z,14.15
2023-11-30T17:20:48.930Z,16.52
2023-11-30T17:23:17.097Z,18.37
2023-11-30T17:25:44.983Z,18.27
2023-11-30T17:28:13.194Z,20.68
2023-11-30T17:30:41.147Z,22.02
2023-11-30T17:33:09.025Z,30.00
2023-11-30T17:35:37.222Z,19.80
2023-11-30T17:38:05.044Z,18.85
2023-11-30T17:40:34.327Z,15.18
2023-11-30T17:43:03.737Z,17.07
2023-11-30T17:45:31.510Z,18.48
2023-11-30T17:47:59.468Z,18.23
2023-11-30T17:50:28.008Z,16.52
2023-11-30T17:52:56.501Z,16.55
2023-11-30T17:55:24.586Z,14.07
2023-11-30T17:57:52.406Z,13.43
2023-11-30T18:00:20.614Z,13.08
2023-11-30T18:02:49.651Z,13.35
2023-11-30T18:05:17.549Z,21.33
2023-11-30T18:07:45.396Z,14.47
2023-11-30T18:10:13.150Z,14.00
2023-11-30T18:12:40.874Z,13.38
2023-11-30T18:15:09.815Z,14.80
2023-11-30T18:17:37.637Z,13.95
2023-11-30T18:20:06.432Z,15.10
2023-11-30T18:22:34.406Z,14.05
2023-11-30T18:25:05.989Z,12.58
2023-11-30T18:27:33.980Z,12.47
2023-11-30T18:30:01.866Z,13.40
2023-11-30T18:32:29.780Z,13.20
2023-11-30T18:34:57.579Z,12.63
2023-11-30T18:37:25.529Z,14.00
2023-11-30T18:39:53.372Z,16.17
2023-11-30T18:42:21.828Z,17.30
2023-11-30T18:44:50.078Z,12.68
2023-11-30T18:47:18.056Z,12.47
2023-11-30T18:49:45.766Z,13.98
2023-11-30T18:52:15.592Z,11.55
2023-11-30T18:54:45.724Z,12.68
2023-11-30T18:57:14.330Z,11.90
2023-11-30T18:59:42.108Z,11.80
2023-11-30T19:02:10.293Z,11.73
2023-11-30T19:04:39.763Z,10.85
2023-11-30T19:07:07.619Z,11.08
2023-11-30T19:09:35.385Z,9.73
2023-11-30T19:12:03.453Z,10.80
2023-11-30T19:14:36.327Z,13.18
2023-11-30T19:17:04.386Z,9.00
2023-11-30T19:19:32.362Z,8.95
2023-11-30T19:22:00.315Z,9.55
2023-11-30T19:24:28.391Z,9.45
2023-11-30T19:26:56.675Z,9.08
2023-11-30T19:29:24.589Z,8.88
2023-11-30T19:31:52.440Z,9.30
2023-11-30T19:34:20.857Z,10.20
2023-11-30T19:36:48.705Z,10.28
2023-11-30T19:39:16.430Z,10.45
2023-11-30T19:41:48.528Z,9.90
2023-11-30T19:44:18.277Z,11.73
2023-11-30T19:46:48.804Z,10.85
2023-11-30T19:49:18.499Z,10.63
2023-11-30T19:51:46.923Z,10.80
2023-11-30T19:54:14.749Z,9.55
2023-11-30T19:56:42.559Z,11.38
2023-11-30T19:59:10.694Z,10.68
2023-11-30T20:01:38.530Z,9.38
2023-11-30T20:04:06.440Z,10.85
2023-11-30T20:06:34.437Z,11.20
2023-11-30T20:09:02.243Z,14.55
2023-11-30T20:11:30.572Z,11.83
2023-11-30T20:14:01.419Z,12.43
2023-11-30T20:16:29.411Z,20.12
2023-11-30T20:18:57.327Z,21.48
2023-11-30T20:21:26.978Z,18.80
2023-11-30T20:23:55.264Z,11.53
2023-11-30T20:26:23.695Z,12.60
2023-11-30T20:28:52.512Z,10.40
2023-11-30T20:31:20.786Z,10.93
2023-11-30T20:33:50.486Z,12.10
2023-11-30T20:36:19.261Z,11.93
2023-11-30T20:38:47.967Z,13.00
2023-11-30T20:41:17.368Z,11.90
2023-11-30T20:43:45.294Z,12.20
2023-11-30T20:46:14.057Z,24.15
2023-11-30T20:48:41.834Z,40.60
2023-11-30T20:51:09.796Z,35.30
2023-11-30T20:53:37.778Z,25.65
2023-11-30T20:56:07.109Z,23.00
2023-11-30T20:58:35.472Z,21.10
2023-11-30T21:01:03.392Z,19.12
2023-11-30T21:03:31.745Z,16.23
2023-11-30T21:06:01.294Z,16.00
2023-11-30T21:08:31.346Z,11.85
2023-11-30T21:11:03.151Z,10.53
2023-11-30T21:13:32.622Z,10.08
2023-11-30T21:16:00.578Z,13.00
2023-11-30T21:18:28.769Z,14.13
2023-11-30T21:20:56.772Z,15.03
2023-11-30T21:23:24.630Z,11.95
2023-11-30T21:25:53.457Z,10.72
2023-11-30T21:28:21.271Z,13.20
2023-11-30T21:30:49.302Z,10.58
2023-11-30T21:33:17.304Z,10.45
2023-11-30T21:35:45.175Z,10.05
2023-11-30T21:38:13.067Z,9.18
2023-11-30T21:40:40.891Z,9.55
2023-11-30T21:43:08.585Z,10.10
2023-11-30T21:45:36.526Z,9.53
2023-11-30T21:48:04.795Z,9.23
2023-11-30T21:50:32.704Z,10.20
2023-11-30T21:53:00.563Z,10.03
2023-11-30T21:55:28.378Z,10.68
2023-11-30T21:57:56.399Z,10.82
2023-11-30T22:00:24.400Z,9.95
2023-11-30T22:02:52.359Z,10.58
2023-11-30T22:05:26.965Z,10.82
2023-11-30T22:07:49.739Z,11.30
2023-11-30T22:10:19.080Z,10.53
2023-11-30T22:12:46.988Z,13.93
2023-11-30T22:15:14.858Z,11.68
2023-11-30T22:17:42.652Z,11.70
2023-11-30T22:20:11.972Z,9.80
2023-11-30T22:22:39.918Z,9.88
2023-11-30T22:25:08.930Z,9.00
2023-11-30T22:27:36.786Z,8.38
2023-11-30T22:30:06.152Z,8.60
2023-11-30T22:32:35.040Z,8.73
2023-11-30T22:35:03.091Z,8.90
2023-11-30T22:37:30.794Z,8.30
2023-11-30T22:39:58.654Z,7.42
2023-11-30T22:42:27.726Z,7.92
2023-11-30T22:44:56.247Z,7.87
2023-11-30T22:47:25.074Z,7.33
2023-11-30T22:49:52.815Z,7.22
2023-11-30T22:52:22.087Z,7.90
2023-11-30T22:54:50.042Z,7.50
2023-11-30T22:57:17.927Z,6.95
2023-11-30T22:59:45.687Z,7.50
2023-11-30T23:02:13.764Z,7.03
2023-11-30T23:04:42.127Z,7.80
2023-11-30T23:07:10.145Z,9.03
2023-11-30T23:09:39.677Z,8.60
2023-11-30T23:12:08.661Z,10.72
2023-11-30T23:14:36.341Z,9.80
2023-11-30T23:17:04.260Z,10.03
2023-11-30T23:19:32.488Z,9.25
2023-11-30T23:22:00.648Z,9.78
2023-11-30T23:24:31.867Z,10.85
2023-11-30T23:26:58.916Z,9.40
2023-11-30T23:29:26.801Z,9.05
2023-11-30T23:31:54.697Z,8.70
2023-11-30T23:34:22.469Z,9.88
2023-11-30T23:36:50.441Z,8.80
2023-11-30T23:39:18.425Z,6.97
2023-11-30T23:41:46.439Z,5.97
2023-11-30T23:44:14.251Z,5.72
2023-11-30T23:46:42.206Z,5.97
2023-11-30T23:49:10.206Z,5.95
2023-11-30T23:51:38.109Z,7.67
2023-11-30T23:54:05.992Z,6.53
2023-11-30T23:56:33.796Z,6.25
2023-11-30T23:59:01.581Z,6.53
